Smithton, Australia
Current Conditions -  °F | °C
As of 11:00 PM on Monday 24 Nov 2014 (Local Time) from YMLT Reporting Station
Clear Clear  
Wind Chill: 50°   Ceiling: Unl
Heat Index: 50°   Visibility: 6mi
Dew Point: 39°   Wind: 16mph
Humidity: 66%   Direction: 300°WNW
Pressure: 29.68"   Gusts: NA
Location:  40.84°S, 145.12°E
Report Text: YMLT 241200Z AUTO 30014KT 9999 // NCD 10/04 Q1005
Loading
Personal Weather Stations






























Interactive Weather Map New forecast layout! Learn more

10-Day Weather Forecast

Advertisements
Track Severe Weather on mobile